Decoded Metar for PATL (TATALINA in AK, USA) (IATA:TLJ) | Meteo·Mobile Aviation Weather
aviador You're here:

PATL Decoded Metar

TATALINA in AK, USA
Report Time2018-09-22 19:17:00
UTC Time2018-09-22 19:33:55
Flight Rules lifr LIFR
WindVRB at 01 kt
Visibility8047 m
Phenomena:Mist
Clouds:Broken 004 Hf
Ceiling400 ft
Temp08°C (ISA -5)
Dew Point08°C (100% RH)
AAT7.2°C
QNH1000 hPa
Density Alt948 ft
Elevation965 ft
Report Wrong Elevation
Raw Report
PATL 221917Z AUTO VRB01KT 5SM BR BKN004 08/08 A2954=

Extra information for PATL:More info

Metar Taf Metar & Taf Last 4 Metars F.Rules Stats Wind Profile Meteogram Temp Stats Airport Information Weather charts Add Link Nearby VenuesMetar ALERT Operation Metar Decoded Social comments

AIRNAV info for PATL